Time;durP1;ratioP1;P1;durP2;ratioP2;P2;SDS_P1;SDS_P2;PMS_P1;PMS_P2;Temp;Humidity;BMP_temperature;BMP_pressure;BME280_temperature;BME280_humidity;BME280_pressure;Samples;Min_cycle;Max_cycle;Signal;HPM_P1;HPM_P2
2022/05/14 00:01:05;;;;;;;0.40;0.20;;;;;;;13.05;81.10;100684.97;5015014;28;20953;-53
2022/05/14 00:03:34;;;;;;;0.30;0.20;;;;;;;12.70;82.69;100684.28;5014483;28;20549;-53
2022/05/14 00:06:04;;;;;;;0.40;0.27;;;;;;;12.54;82.56;100685.66;5014873;28;20480;-53
2022/05/14 00:08:31;;;;;;;0.33;0.20;;;;;;;12.35;83.19;100684.47;5014626;28;20515;-53
2022/05/14 00:13:44;;;;;;;0.40;0.20;;;;;;;12.45;83.29;100686.81;5014296;28;20468;-53
2022/05/14 00:16:12;;;;;;;0.30;0.20;;;;;;;12.42;83.65;100686.03;5014336;28;20524;-53
2022/05/14 00:18:39;;;;;;;0.30;0.20;;;;;;;12.49;83.14;100694.75;5006068;28;20478;-53
2022/05/14 00:21:06;;;;;;;0.40;0.30;;;;;;;12.47;82.96;100692.09;5014273;28;20453;-53
2022/05/14 00:23:37;;;;;;;0.30;0.20;;;;;;;12.24;84.11;100695.44;5014223;28;20464;-53
2022/05/14 00:26:04;;;;;;;1.83;0.83;;;;;;;12.15;83.53;100687.72;5014284;28;20449;-53
2022/05/14 00:28:31;;;;;;;5.30;1.40;;;;;;;12.11;84.16;100684.28;5014661;28;20452;-53
2022/05/14 00:30:59;;;;;;;0.40;0.20;;;;;;;12.25;83.96;100691.00;5014299;28;20457;-53
2022/05/14 00:33:25;;;;;;;0.30;0.20;;;;;;;12.24;83.99;100683.91;5013892;28;20563;-53
2022/05/14 00:35:52;;;;;;;0.40;0.20;;;;;;;12.22;83.73;100686.63;5013495;28;20484;-53
2022/05/14 00:38:18;;;;;;;0.37;0.20;;;;;;;12.30;83.01;100687.25;5014311;28;20449;-53
2022/05/14 00:40:54;;;;;;;0.30;0.20;;;;;;;12.29;82.84;100698.84;5024813;28;20505;-53
2022/05/14 00:43:21;;;;;;;0.30;0.20;;;;;;;11.98;84.94;100701.50;5013988;28;20464;-53
2022/05/14 00:46:16;;;;;;;0.30;0.20;;;;;;;12.16;84.62;100698.31;5014181;28;20452;-53
2022/05/14 00:48:44;;;;;;;0.30;0.20;;;;;;;11.77;86.15;100694.06;4998798;28;20467;-53
2022/05/14 00:51:15;;;;;;;0.73;0.73;;;;;;;12.02;85.69;100695.19;5014027;28;20453;-53
2022/05/14 00:53:46;;;;;;;0.30;0.20;;;;;;;12.11;85.80;100694.94;5013616;28;20480;-53
2022/05/14 00:56:16;;;;;;;0.30;0.20;;;;;;;11.95;85.87;100695.41;5012694;28;20539;-53
2022/05/14 00:58:51;;;;;;;0.30;0.20;;;;;;;11.70;85.62;100693.38;5012394;28;20506;-53
2022/05/14 01:01:18;;;;;;;0.30;0.20;;;;;;;11.68;86.37;100694.34;5021479;28;21027;-53
2022/05/14 01:03:44;;;;;;;0.30;0.20;;;;;;;11.96;85.73;100695.34;5013234;28;20488;-53
2022/05/14 01:06:14;;;;;;;0.30;0.20;;;;;;;11.90;84.88;100705.28;5013643;28;20528;-53
2022/05/14 01:08:42;;;;;;;0.30;0.20;;;;;;;11.94;85.04;100691.88;5013593;28;20452;-53
2022/05/14 01:11:11;;;;;;;0.30;0.20;;;;;;;11.60;85.97;100699.84;5013547;28;20518;-53
2022/05/14 01:13:38;;;;;;;0.30;0.20;;;;;;;11.44;86.68;100695.84;5013297;28;20472;-53
2022/05/14 01:16:05;;;;;;;0.30;0.20;;;;;;;11.50;87.60;100685.88;5013261;28;20520;-53
2022/05/14 01:18:33;;;;;;;0.40;0.20;;;;;;;11.48;87.12;100694.84;5012989;28;20488;-53
2022/05/14 01:21:04;;;;;;;1.70;1.70;;;;;;;11.19;89.30;100687.59;5013630;28;20515;-53
2022/05/14 01:26:54;;;;;;;0.30;0.20;;;;;;;11.47;88.86;100695.75;5011174;28;20485;-53
2022/05/14 01:29:23;;;;;;;0.30;0.20;;;;;;;11.42;89.20;100687.91;5013687;28;20502;-53
2022/05/14 01:31:52;;;;;;;1.60;1.60;;;;;;;11.48;88.80;100686.84;5024556;28;20873;-53
2022/05/14 01:34:23;;;;;;;0.30;0.20;;;;;;;11.61;87.87;100690.94;5012947;28;20531;-53
2022/05/14 01:36:51;;;;;;;0.30;0.20;;;;;;;11.67;87.75;100692.59;5013173;28;20558;-53
2022/05/14 01:39:18;;;;;;;0.30;0.20;;;;;;;11.54;87.29;100686.72;5012883;28;20457;-53
2022/05/14 01:41:45;;;;;;;0.30;0.20;;;;;;;11.23;88.48;100684.81;5023323;28;20484;-53
2022/05/14 01:44:11;;;;;;;0.30;0.20;;;;;;;11.23;88.73;100684.81;5012782;28;20508;-53
2022/05/14 01:46:38;;;;;;;0.40;0.20;;;;;;;11.27;88.81;100691.81;5012708;28;20449;-53
2022/05/14 01:49:05;;;;;;;0.40;0.40;;;;;;;11.35;88.65;100691.59;5012707;28;20973;-53
2022/05/14 01:51:33;;;;;;;0.30;0.20;;;;;;;11.28;88.61;100687.38;5013674;28;20452;-53
2022/05/14 01:54:00;;;;;;;0.30;0.20;;;;;;;11.06;89.17;100688.78;5012318;28;20906;-53
2022/05/14 01:56:27;;;;;;;0.30;0.20;;;;;;;11.04;89.98;100686.19;5012635;28;20527;-53
2022/05/14 01:58:54;;;;;;;0.30;0.20;;;;;;;11.05;90.54;100689.72;5012671;28;20836;-53
2022/05/14 02:01:34;;;;;;;0.30;0.20;;;;;;;11.09;89.70;100683.41;5003671;28;20445;-53
2022/05/14 02:04:04;;;;;;;0.30;0.20;;;;;;;10.93;89.91;100678.44;5012473;28;20472;-53
2022/05/14 02:06:31;;;;;;;0.30;0.20;;;;;;;10.78;90.56;100684.13;5013568;28;20496;-53
2022/05/14 02:08:58;;;;;;;0.30;0.20;;;;;;;10.81;91.93;100677.84;5012610;28;20491;-53
2022/05/14 02:11:25;;;;;;;0.40;0.30;;;;;;;10.78;90.93;100673.50;5010183;28;20505;-53
2022/05/14 02:13:53;;;;;;;0.30;0.20;;;;;;;10.74;91.77;100673.59;5012604;28;20468;-53
2022/05/14 02:16:20;;;;;;;0.30;0.20;;;;;;;10.67;91.73;100673.72;5012293;28;20527;-53
2022/05/14 02:18:46;;;;;;;0.30;0.20;;;;;;;10.53;91.42;100675.81;5012177;28;20802;-53
2022/05/14 02:21:14;;;;;;;0.30;0.20;;;;;;;10.58;91.20;100681.94;5023692;28;20487;-53
2022/05/14 02:23:41;;;;;;;0.30;0.20;;;;;;;10.54;92.36;100674.03;5012266;28;20484;-53
2022/05/14 02:26:11;;;;;;;0.30;0.20;;;;;;;10.69;91.31;100676.38;5012052;28;20946;-53
2022/05/14 02:28:39;;;;;;;0.30;0.20;;;;;;;10.81;91.39;100676.06;5012646;28;20856;-53
2022/05/14 02:31:06;;;;;;;0.30;0.20;;;;;;;10.84;91.32;100673.38;5012622;28;20897;-53
2022/05/14 02:33:33;;;;;;;0.30;0.20;;;;;;;10.60;91.46;100679.25;5012093;28;20476;-53
2022/05/14 02:36:00;;;;;;;0.30;0.20;;;;;;;10.33;92.99;100673.63;5012033;28;20496;-53
2022/05/14 02:38:30;;;;;;;0.30;0.20;;;;;;;10.34;92.38;100672.72;5012168;28;20449;-53
2022/05/14 02:40:57;;;;;;;0.30;0.20;;;;;;;10.70;91.35;100685.22;5012577;28;20460;-53
2022/05/14 02:43:25;;;;;;;0.30;0.20;;;;;;;10.62;91.27;100680.94;5012335;28;20546;-53
2022/05/14 02:45:51;;;;;;;0.30;0.20;;;;;;;10.57;90.38;100674.88;5012092;28;20486;-53
2022/05/14 02:48:18;;;;;;;0.30;0.20;;;;;;;10.42;92.25;100677.00;5012141;28;20449;-53
2022/05/14 02:50:45;;;;;;;0.30;0.20;;;;;;;10.37;92.33;100685.91;5012132;28;20863;-53
2022/05/14 02:53:12;;;;;;;0.30;0.20;;;;;;;10.24;92.49;100678.25;5011864;28;20464;-53
2022/05/14 02:55:38;;;;;;;0.30;0.20;;;;;;;10.32;92.03;100677.19;5018028;28;20492;-53
2022/05/14 02:58:05;;;;;;;0.30;0.20;;;;;;;10.23;92.95;100673.84;5011884;28;20909;-53
2022/05/14 03:00:32;;;;;;;0.30;0.20;;;;;;;10.35;93.39;100681.56;5016094;28;20499;-53
2022/05/14 03:02:59;;;;;;;0.30;0.20;;;;;;;10.23;93.91;100677.38;5011771;28;20495;-54
2022/05/14 03:05:27;;;;;;;0.83;0.83;;;;;;;10.32;94.10;100682.50;5011934;28;20945;-53
2022/05/14 03:07:53;;;;;;;0.30;0.20;;;;;;;10.23;93.98;100681.81;5011936;28;20945;-53
2022/05/14 03:10:20;;;;;;;0.30;0.20;;;;;;;10.29;93.58;100682.56;5012752;28;20494;-53
2022/05/14 03:12:47;;;;;;;0.30;0.20;;;;;;;10.43;92.63;100684.06;5011788;28;20510;-53
2022/05/14 03:15:14;;;;;;;0.30;0.20;;;;;;;10.13;92.84;100685.53;5011767;28;20472;-53
2022/05/14 03:17:41;;;;;;;0.30;0.20;;;;;;;10.08;93.88;100688.28;5011597;28;20491;-53
2022/05/14 03:20:11;;;;;;;0.30;0.20;;;;;;;9.97;94.62;100692.91;5015475;28;20456;-53
2022/05/14 03:22:39;;;;;;;0.40;0.37;;;;;;;10.08;94.43;100691.81;5024557;28;20505;-53
2022/05/14 03:25:07;;;;;;;0.30;0.20;;;;;;;10.03;93.23;100692.81;5015934;28;20542;-53
2022/05/14 03:27:34;;;;;;;0.30;0.20;;;;;;;9.91;93.92;100695.72;5015481;28;20544;-53
2022/05/14 03:30:01;;;;;;;0.30;0.20;;;;;;;9.99;94.65;100696.41;5015512;28;20449;-53
2022/05/14 03:32:27;;;;;;;0.30;0.20;;;;;;;9.87;95.50;100702.88;5015964;28;20456;-54
2022/05/14 03:34:54;;;;;;;0.30;0.20;;;;;;;10.03;93.77;100696.34;5014812;28;20496;-53
2022/05/14 03:37:25;;;;;;;0.30;0.20;;;;;;;10.03;94.46;100706.09;5023735;28;20510;-53
2022/05/14 03:39:52;;;;;;;0.60;0.60;;;;;;;9.92;93.53;100701.00;5002909;28;20448;-53
2022/05/14 03:42:19;;;;;;;0.30;0.20;;;;;;;9.82;94.21;100703.84;5022020;28;20484;-53
2022/05/14 03:44:48;;;;;;;0.30;0.20;;;;;;;9.75;94.61;100706.63;5015133;28;20998;-53
2022/05/14 03:47:15;;;;;;;0.40;0.30;;;;;;;9.86;93.78;100702.88;5020280;28;20525;-53
2022/05/14 03:49:42;;;;;;;0.30;0.20;;;;;;;9.67;94.84;100705.00;5004098;28;20511;-53
2022/05/14 03:52:09;;;;;;;0.33;0.27;;;;;;;9.87;94.66;100707.28;5014898;28;20449;-53
2022/05/14 03:54:38;;;;;;;0.30;0.20;;;;;;;9.66;95.95;100717.41;5014843;28;20519;-53
2022/05/14 03:57:08;;;;;;;0.30;0.20;;;;;;;9.75;95.08;100716.38;5015039;28;20488;-53
2022/05/14 03:59:35;;;;;;;0.30;0.20;;;;;;;9.75;94.00;100719.91;5018911;28;20946;-53
2022/05/14 04:02:04;;;;;;;0.30;0.20;;;;;;;9.59;95.35;100718.41;5014689;28;20452;-53
2022/05/14 04:04:31;;;;;;;0.30;0.20;;;;;;;9.68;95.09;100712.94;5008552;28;20535;-53
2022/05/14 04:06:58;;;;;;;0.30;0.20;;;;;;;9.42;97.11;100716.03;5018452;28;20494;-54
2022/05/14 04:09:25;;;;;;;0.30;0.20;;;;;;;9.64;94.93;100719.22;5023835;28;20905;-54
2022/05/14 04:11:53;;;;;;;0.30;0.20;;;;;;;9.68;95.74;100712.94;5014543;28;20511;-54
2022/05/14 04:14:21;;;;;;;1.30;1.17;;;;;;;9.69;95.27;100713.81;5014343;28;20978;-53
2022/05/14 04:16:48;;;;;;;0.30;0.20;;;;;;;9.65;95.59;100717.44;5018308;28;20484;-54
2022/05/14 04:19:14;;;;;;;0.30;0.20;;;;;;;9.74;95.63;100720.81;5015647;28;20824;-54
2022/05/14 04:21:41;;;;;;;0.30;0.20;;;;;;;9.67;95.78;100715.63;5023411;28;20491;-54
2022/05/14 04:24:08;;;;;;;0.30;0.20;;;;;;;9.80;95.13;100718.03;5014510;28;20902;-54
2022/05/14 04:26:34;;;;;;;0.30;0.20;;;;;;;9.87;95.31;100720.53;5018807;28;20452;-54
2022/05/14 04:29:01;;;;;;;0.30;0.20;;;;;;;9.77;95.92;100722.53;5013982;28;20453;-54
2022/05/14 04:31:28;;;;;;;0.30;0.20;;;;;;;9.99;95.13;100728.28;5012909;28;21023;-54
2022/05/14 04:33:55;;;;;;;0.50;0.50;;;;;;;10.06;94.33;100728.16;5014156;28;20476;-54
2022/05/14 04:36:21;;;;;;;0.30;0.20;;;;;;;9.89;95.54;100732.03;5017774;28;20461;-54
2022/05/14 04:38:48;;;;;;;0.40;0.20;;;;;;;10.13;95.58;100722.72;5014094;28;20554;-54
2022/05/14 04:41:14;;;;;;;0.30;0.20;;;;;;;10.27;95.33;100734.84;5017618;28;20522;-54
2022/05/14 04:43:41;;;;;;;0.30;0.20;;;;;;;11.18;92.63;100723.09;5019957;28;20500;-53
2022/05/14 04:46:08;;;;;;;0.30;0.20;;;;;;;12.00;88.23;100730.78;5013823;28;20453;-53
2022/05/14 04:48:36;;;;;;;0.37;0.30;;;;;;;12.62;84.72;100728.13;5013841;28;20511;-54
2022/05/14 04:51:04;;;;;;;0.30;0.20;;;;;;;13.47;81.68;100727.22;5017341;28;21022;-54
2022/05/14 04:53:31;;;;;;;0.30;0.30;;;;;;;13.61;80.49;100733.84;5013730;28;20988;-54
2022/05/14 04:55:57;;;;;;;0.30;0.20;;;;;;;13.89;79.84;100725.75;5013729;28;20487;-54
2022/05/14 04:58:24;;;;;;;0.30;0.20;;;;;;;14.28;77.34;100711.00;5014526;28;20555;-54
2022/05/14 05:00:50;;;;;;;0.30;0.20;;;;;;;14.49;77.39;100727.13;5013685;28;20522;-54
2022/05/14 05:03:17;;;;;;;0.30;0.20;;;;;;;14.42;78.29;100738.97;5013555;28;20477;-54
2022/05/14 05:05:46;;;;;;;1.33;0.70;;;;;;;14.83;77.02;100739.25;5001834;28;20464;-54
2022/05/14 05:08:13;;;;;;;0.30;0.20;;;;;;;14.66;77.65;100745.22;5013567;28;20457;-54
2022/05/14 05:10:40;;;;;;;0.30;0.20;;;;;;;15.24;74.78;100739.41;5013595;28;20452;-54
2022/05/14 05:13:12;;;;;;;0.40;0.30;;;;;;;15.42;73.84;100735.97;5013104;28;20460;-54
2022/05/14 05:15:40;;;;;;;0.30;0.30;;;;;;;15.63;74.44;100737.81;5016699;28;20992;-54
2022/05/14 05:18:07;;;;;;;0.73;0.70;;;;;;;15.99;72.69;100739.81;5017182;28;20886;-55
2022/05/14 05:20:36;;;;;;;3.37;2.43;;;;;;;15.76;74.46;100739.94;5023784;28;20985;-54
2022/05/14 05:23:04;;;;;;;0.40;0.20;;;;;;;16.00;72.79;100736.19;5016688;28;20496;-54
2022/05/14 05:25:31;;;;;;;0.40;0.20;;;;;;;16.15;73.45;100743.56;5015245;28;20456;-54
2022/05/14 05:27:58;;;;;;;0.40;0.20;;;;;;;15.50;75.52;100741.91;5012699;28;20441;-54
2022/05/14 05:30:25;;;;;;;0.40;0.20;;;;;;;16.15;73.97;100740.00;5036157;28;20853;-54
2022/05/14 05:32:52;;;;;;;2.63;0.50;;;;;;;16.04;73.99;100753.91;5019593;28;20889;-54
2022/05/14 05:35:20;;;;;;;0.40;0.30;;;;;;;16.23;73.64;100752.16;5013021;28;20477;-54
2022/05/14 05:37:47;;;;;;;18.33;1.57;;;;;;;16.58;72.74;100752.34;5017726;28;20484;-55
2022/05/14 05:40:17;;;;;;;0.40;0.20;;;;;;;16.49;72.53;100745.63;5013502;28;20456;-55
2022/05/14 05:42:44;;;;;;;0.40;0.20;;;;;;;16.49;73.06;100748.31;5014114;28;20453;-55
2022/05/14 05:45:14;;;;;;;0.40;0.20;;;;;;;16.40;73.29;100746.03;5013263;28;20872;-55
2022/05/14 05:47:42;;;;;;;0.40;0.20;;;;;;;17.09;70.33;100746.38;5020383;28;20460;-55
2022/05/14 05:50:10;;;;;;;0.40;0.20;;;;;;;16.86;70.85;100752.88;5018806;28;20509;-54
2022/05/14 05:52:36;;;;;;;0.40;0.20;;;;;;;17.19;70.11;100752.19;5024131;28;20453;-55
2022/05/14 05:57:49;;;;;;;0.40;0.20;;;;;;;16.94;70.49;100760.56;5010276;28;20476;-55
2022/05/14 06:00:23;;;;;;;0.40;0.20;;;;;;;17.24;69.83;100762.72;5015600;28;20942;-54
2022/05/14 06:02:50;;;;;;;0.50;0.50;;;;;;;17.23;70.53;100764.53;5011496;28;20457;-55
2022/05/14 06:05:17;;;;;;;0.40;0.20;;;;;;;17.22;69.90;100765.47;5023094;28;20476;-55
2022/05/14 06:07:44;;;;;;;0.40;0.20;;;;;;;17.20;69.75;100764.69;5012514;28;20519;-55
2022/05/14 06:10:15;;;;;;;0.40;0.30;;;;;;;17.61;68.91;100773.41;5023032;28;20510;-55
2022/05/14 06:12:41;;;;;;;0.40;0.20;;;;;;;17.04;69.62;100777.13;5017159;28;20512;-55
2022/05/14 06:15:14;;;;;;;0.40;0.30;;;;;;;17.22;69.87;100776.22;5010581;28;20507;-55
2022/05/14 06:17:45;;;;;;;0.50;0.47;;;;;;;17.65;68.83;100780.34;5014518;28;20488;-54
2022/05/14 06:20:14;;;;;;;0.40;0.20;;;;;;;17.92;67.89;100775.44;5012365;28;20831;-55
2022/05/14 06:22:41;;;;;;;0.40;0.20;;;;;;;17.61;69.15;100780.59;5012654;28;20884;-56
2022/05/14 06:25:09;;;;;;;0.40;0.20;;;;;;;17.52;69.95;100786.44;5022744;28;20526;-55
2022/05/14 06:27:36;;;;;;;0.40;0.20;;;;;;;17.91;68.14;100776.41;5012143;28;20437;-56
2022/05/14 06:30:04;;;;;;;0.50;0.30;;;;;;;17.93;68.92;100773.63;5011949;28;20833;-55
2022/05/14 06:32:31;;;;;;;0.40;0.20;;;;;;;18.00;68.21;100775.94;5012598;28;20487;-56
2022/05/14 06:34:57;;;;;;;0.47;0.37;;;;;;;17.54;70.07;100779.16;5023232;28;20510;-55
2022/05/14 06:37:24;;;;;;;0.40;0.20;;;;;;;17.74;69.55;100774.56;5012189;28;20520;-55
2022/05/14 06:39:50;;;;;;;0.40;0.30;;;;;;;17.60;71.54;100781.56;5011950;28;20941;-55
2022/05/14 06:42:18;;;;;;;0.40;0.20;;;;;;;17.75;71.19;100787.06;5025570;28;20456;-54
2022/05/14 06:44:45;;;;;;;0.40;0.30;;;;;;;17.70;71.27;100789.13;5016722;28;20479;-54
2022/05/14 06:47:11;;;;;;;1.27;0.50;;;;;;;17.74;70.24;100784.44;5016780;28;20956;-54
2022/05/14 06:49:38;;;;;;;0.40;0.20;;;;;;;17.91;70.71;100776.41;5014561;28;20892;-54
2022/05/14 06:52:06;;;;;;;0.40;0.20;;;;;;;17.88;70.82;100781.94;5013272;28;20495;-54
2022/05/14 06:54:36;;;;;;;0.40;0.27;;;;;;;18.16;70.26;100781.38;5015138;28;20916;-54
2022/05/14 06:57:03;;;;;;;0.40;0.20;;;;;;;17.99;69.79;100787.66;5018920;28;20852;-54
2022/05/14 06:59:32;;;;;;;0.40;0.20;;;;;;;18.17;69.97;100788.50;5004567;28;20448;-55
2022/05/14 07:02:00;;;;;;;0.40;0.20;;;;;;;18.35;68.83;100782.16;5017441;28;20456;-55
2022/05/14 07:07:12;;;;;;;0.40;0.20;;;;;;;18.47;68.59;100780.63;5027808;28;20465;-54
2022/05/14 07:09:39;;;;;;;0.50;0.40;;;;;;;18.34;68.33;100782.22;5019829;28;20513;-55
2022/05/14 07:12:09;;;;;;;0.40;0.20;;;;;;;18.28;69.29;100774.50;5016478;28;20601;-55
2022/05/14 07:14:40;;;;;;;0.40;0.20;;;;;;;18.68;68.59;100775.09;5027007;28;20471;-55
2022/05/14 07:17:08;;;;;;;0.40;0.27;;;;;;;18.75;68.30;100776.47;5020399;28;20464;-54
2022/05/14 07:19:36;;;;;;;1.07;1.07;;;;;;;18.81;66.44;100781.56;5015335;28;21005;-54
2022/05/14 07:22:03;;;;;;;1.00;0.93;;;;;;;18.96;67.49;100778.00;5016058;28;20515;-54
2022/05/14 07:24:30;;;;;;;0.53;0.47;;;;;;;19.04;65.36;100774.88;5025248;28;20517;-54
2022/05/14 07:27:00;;;;;;;0.40;0.20;;;;;;;19.32;64.87;100771.47;5016533;28;20483;-54
2022/05/14 07:29:29;;;;;;;0.40;0.20;;;;;;;19.41;65.11;100768.28;5026956;28;20447;-54
2022/05/14 07:31:55;;;;;;;0.40;0.20;;;;;;;19.37;66.49;100772.13;5017788;28;20514;-55
2022/05/14 07:34:23;;;;;;;1.33;1.33;;;;;;;19.45;64.78;100777.91;5018732;28;20471;-55
2022/05/14 07:37:16;;;;;;;0.40;0.20;;;;;;;19.71;64.82;100773.75;5016754;28;20452;-55
2022/05/14 07:39:49;;;;;;;0.40;0.30;;;;;;;19.90;64.64;100774.41;5015163;28;20452;-54
2022/05/14 07:42:28;;;;;;;0.40;0.20;;;;;;;20.33;61.80;100769.97;5026194;28;20486;-55
2022/05/14 07:44:59;;;;;;;0.40;0.20;;;;;;;20.02;62.22;100779.06;5015228;28;20503;-55
2022/05/14 07:47:27;;;;;;;6.60;1.57;;;;;;;20.16;62.67;100772.84;5024901;28;20460;-55
2022/05/14 07:49:54;;;;;;;0.40;0.20;;;;;;;20.02;61.47;100773.69;5016850;28;20461;-54
2022/05/14 07:52:21;;;;;;;1.10;0.80;;;;;;;20.20;61.89;100776.22;5017556;28;20448;-55
2022/05/14 07:54:48;;;;;;;0.40;0.27;;;;;;;20.36;61.01;100775.19;5019874;28;20480;-55
2022/05/14 07:57:16;;;;;;;0.40;0.20;;;;;;;20.62;60.92;100770.03;5030925;28;20456;-54
2022/05/14 07:59:44;;;;;;;0.70;0.60;;;;;;;20.48;60.10;100776.31;5015578;28;20524;-54
2022/05/14 08:02:32;;;;;;;1.27;0.93;;;;;;;20.41;59.78;100773.09;5021900;28;20460;-54
2022/05/14 08:05:01;;;;;;;0.40;0.30;;;;;;;20.68;58.84;100775.03;5013797;28;20468;-55
2022/05/14 08:07:29;;;;;;;0.40;0.20;;;;;;;20.62;59.32;100770.03;5020748;28;20821;-55
2022/05/14 08:09:58;;;;;;;0.40;0.20;;;;;;;20.86;58.38;100773.91;5026598;28;20447;-54
2022/05/14 08:12:26;;;;;;;0.53;0.47;;;;;;;21.11;56.96;100777.75;5025953;28;20524;-55
2022/05/14 08:14:52;;;;;;;0.40;0.20;;;;;;;20.86;57.84;100773.91;5014328;28;20846;-55
2022/05/14 08:17:19;;;;;;;0.40;0.20;;;;;;;20.84;54.66;100770.44;5014296;28;20942;-54
2022/05/14 08:19:45;;;;;;;0.40;0.20;;;;;;;20.72;57.18;100776.59;5013994;28;20539;-54
2022/05/14 08:24:57;;;;;;;0.40;0.20;;;;;;;20.69;59.13;100766.84;5023496;28;20891;-55
2022/05/14 08:27:23;;;;;;;0.40;0.20;;;;;;;20.90;57.99;100764.63;5020672;28;20511;-56
2022/05/14 08:29:50;;;;;;;0.40;0.20;;;;;;;21.28;56.84;100761.31;5018107;28;20448;-55
2022/05/14 08:32:21;;;;;;;0.40;0.20;;;;;;;21.88;55.77;100758.19;5031647;28;20897;-55
2022/05/14 08:34:49;;;;;;;0.67;0.60;;;;;;;21.55;54.38;100745.09;5021327;28;20480;-55
2022/05/14 08:37:16;;;;;;;0.40;0.20;;;;;;;21.77;54.08;100758.03;5013757;28;20488;-55
2022/05/14 08:39:43;;;;;;;0.73;0.73;;;;;;;22.25;53.76;100752.97;5017786;28;20502;-55
2022/05/14 08:42:11;;;;;;;0.40;0.20;;;;;;;21.93;53.23;100749.72;5020524;28;20449;-55
2022/05/14 08:44:40;;;;;;;0.40;0.20;;;;;;;21.74;51.97;100734.75;5013968;28;20469;-55
2022/05/14 08:47:30;;;;;;;0.50;0.30;;;;;;;21.85;52.11;100750.28;5022294;28;20526;-56
2022/05/14 08:49:57;;;;;;;0.63;0.63;;;;;;;22.10;52.88;100744.94;5004427;28;20815;-55
2022/05/14 08:52:31;;;;;;;0.40;0.30;;;;;;;22.13;52.14;100746.56;5013733;28;20476;-55
2022/05/14 08:55:01;;;;;;;11.97;0.67;;;;;;;22.74;52.06;100731.38;5015155;28;20534;-56
2022/05/14 08:57:44;;;;;;;0.40;0.20;;;;;;;22.50;51.77;100739.44;5021270;28;20452;-56
2022/05/14 09:00:12;;;;;;;0.40;0.20;;;;;;;22.17;53.06;100739.97;5017828;28;20491;-56
2022/05/14 09:02:48;;;;;;;1.23;1.13;;;;;;;22.18;52.38;100739.84;5026486;28;20444;-55
2022/05/14 09:05:38;;;;;;;0.40;0.30;;;;;;;22.51;51.63;100735.75;5041626;28;20534;-56
2022/05/14 09:08:05;;;;;;;0.60;0.60;;;;;;;22.95;50.66;100742.56;5014086;28;20507;-55
2022/05/14 09:10:41;;;;;;;0.47;0.33;;;;;;;22.67;51.03;100738.22;5007546;28;20472;-56
2022/05/14 09:13:15;;;;;;;0.50;0.33;;;;;;;22.87;52.28;100736.81;5011915;28;20452;-55
2022/05/14 09:15:55;;;;;;;0.40;0.20;;;;;;;23.35;50.96;100735.06;5011202;28;20961;-53
2022/05/14 09:18:27;;;;;;;0.40;0.20;;;;;;;23.27;50.48;100734.75;5010627;28;20488;-53
2022/05/14 09:21:01;;;;;;;0.40;0.30;;;;;;;22.67;50.91;100730.97;5022055;28;20502;-53
2022/05/14 09:23:51;;;;;;;0.40;0.20;;;;;;;23.20;50.50;100728.06;5014955;28;21031;-55
2022/05/14 09:26:23;;;;;;;0.40;0.30;;;;;;;22.50;50.85;100725.03;5011366;28;20457;-56
2022/05/14 09:28:52;;;;;;;0.50;0.30;;;;;;;22.79;52.31;100729.22;5016690;28;20460;-56
2022/05/14 09:31:30;;;;;;;0.50;0.40;;;;;;;23.11;51.40;100728.75;5016598;28;20538;-56
2022/05/14 09:34:10;;;;;;;0.40;0.30;;;;;;;23.39;49.39;100730.25;5013484;28;20507;-56
2022/05/14 09:36:39;;;;;;;2.73;0.70;;;;;;;23.26;49.67;100723.03;5001799;28;20514;-55
2022/05/14 09:39:11;;;;;;;0.60;0.60;;;;;;;22.88;49.24;100728.56;5012842;28;20542;-55
2022/05/14 09:42:00;;;;;;;0.50;0.30;;;;;;;22.98;50.68;100723.34;5017708;28;20514;-55
2022/05/14 09:44:50;;;;;;;0.40;0.20;;;;;;;23.62;48.22;100724.00;5011732;28;20528;-53
2022/05/14 09:47:43;;;;;;;0.87;0.87;;;;;;;23.65;48.52;100726.47;5012602;28;20464;-52
2022/05/14 09:50:19;;;;;;;0.40;0.30;;;;;;;22.88;49.18;100722.28;5011513;28;20495;-53
2022/05/14 09:53:03;;;;;;;0.40;0.20;;;;;;;23.39;50.64;100724.84;5004237;28;20464;-52
2022/05/14 09:56:11;;;;;;;0.40;0.20;;;;;;;23.56;49.21;100725.28;5017233;28;20495;-53
2022/05/14 09:59:06;;;;;;;0.50;0.30;;;;;;;23.18;48.76;100722.75;5016404;28;20488;-53
2022/05/14 10:01:45;;;;;;;0.40;0.20;;;;;;;23.93;47.76;100717.09;5027590;28;20499;-53
2022/05/14 10:04:31;;;;;;;0.40;0.20;;;;;;;24.12;46.60;100719.22;5012269;28;20499;-55
2022/05/14 10:07:10;;;;;;;0.40;0.20;;;;;;;23.13;46.89;100721.34;5006462;28;20827;-56
2022/05/14 10:10:04;;;;;;;1.17;0.83;;;;;;;23.50;47.51;100716.75;5021587;28;20448;-56
2022/05/14 10:12:45;;;;;;;0.50;0.50;;;;;;;23.30;47.61;100716.44;5005436;28;21006;-55
2022/05/14 10:15:27;;;;;;;0.40;0.20;;;;;;;24.12;45.77;100717.41;5021357;28;20542;-56
2022/05/14 10:18:02;;;;;;;0.40;0.20;;;;;;;24.22;46.20;100725.66;5012177;28;20520;-53
2022/05/14 10:20:50;;;;;;;0.40;0.20;;;;;;;24.54;46.44;100717.72;5028777;28;20452;-54
2022/05/14 10:29:26;;;;;;;0.60;0.37;;;;;;;23.52;44.66;100701.22;5016621;28;20494;-54
2022/05/14 10:32:15;;;;;;;0.40;0.20;;;;;;;24.37;44.14;100705.47;5006280;28;20460;-56
2022/05/14 10:35:04;;;;;;;0.40;0.27;;;;;;;24.33;43.41;100712.13;5012031;28;20562;-56
2022/05/14 10:37:44;;;;;;;0.40;0.20;;;;;;;24.37;43.96;100704.59;5019644;28;20479;-56
2022/05/14 10:40:24;;;;;;;0.40;0.20;;;;;;;24.22;44.99;100712.09;5015798;28;20496;-56
2022/05/14 10:42:53;;;;;;;0.50;0.37;;;;;;;24.36;44.67;100697.44;5020154;28;20872;-56
2022/05/14 10:45:46;;;;;;;0.40;0.20;;;;;;;23.92;44.33;100693.63;5012201;28;20812;-53
2022/05/14 10:48:38;;;;;;;0.40;0.20;;;;;;;24.02;44.35;100697.38;5001462;28;20449;-53
2022/05/14 10:51:08;;;;;;;0.40;0.30;;;;;;;24.30;44.64;100693.38;5012332;28;20460;-53
2022/05/14 10:53:39;;;;;;;0.40;0.20;;;;;;;24.40;43.59;100691.66;5012096;28;20511;-53
2022/05/14 10:56:13;;;;;;;0.40;0.20;;;;;;;24.86;42.90;100697.94;5012298;28;20440;-53
2022/05/14 10:58:51;;;;;;;0.40;0.20;;;;;;;24.67;42.23;100694.00;5026855;28;20500;-53
2022/05/14 11:01:36;;;;;;;0.50;0.30;;;;;;;24.23;41.44;100687.50;5027168;28;20575;-53
2022/05/14 11:04:22;;;;;;;0.40;0.20;;;;;;;24.61;42.29;100694.50;5014759;28;20475;-53
2022/05/14 11:07:24;;;;;;;0.40;0.20;;;;;;;25.20;42.26;100680.56;5015259;28;20456;-53
2022/05/14 11:09:51;;;;;;;0.40;0.20;;;;;;;25.26;40.95;100685.53;5015560;28;20487;-53
2022/05/14 11:12:24;;;;;;;0.40;0.20;;;;;;;25.29;40.86;100687.13;5004467;28;20460;-53
2022/05/14 11:14:53;;;;;;;3.43;1.40;;;;;;;24.79;41.14;100678.53;5011859;28;20468;-53
2022/05/14 11:17:23;;;;;;;0.70;0.40;;;;;;;24.85;41.72;100672.59;5012089;28;20934;-54
2022/05/14 11:20:04;;;;;;;0.43;0.30;;;;;;;24.78;40.28;100672.22;5011860;28;20494;-53
2022/05/14 11:22:50;;;;;;;0.40;0.20;;;;;;;24.39;41.32;100667.28;5011863;28;20456;-53
2022/05/14 11:25:17;;;;;;;0.83;0.83;;;;;;;24.92;41.17;100662.94;5007436;28;20537;-53
2022/05/14 11:28:25;;;;;;;0.40;0.20;;;;;;;25.12;41.10;100668.63;5016625;28;20966;-53
2022/05/14 11:30:55;;;;;;;0.40;0.20;;;;;;;24.97;39.94;100665.28;5012733;28;20898;-54
2022/05/14 11:33:27;;;;;;;0.40;0.30;;;;;;;24.82;40.38;100664.69;5011578;28;20472;-53
2022/05/14 11:36:00;;;;;;;0.50;0.30;;;;;;;24.81;39.93;100665.69;5011508;28;20456;-53
2022/05/14 11:38:35;;;;;;;0.40;0.20;;;;;;;24.51;40.17;100660.88;5011985;28;20531;-55
2022/05/14 11:41:05;;;;;;;0.40;0.20;;;;;;;24.36;39.86;100665.69;5015337;28;20725;-55
2022/05/14 11:43:37;;;;;;;0.40;0.20;;;;;;;24.82;41.18;100667.41;5014062;28;20584;-55
2022/05/14 11:46:09;;;;;;;10.13;1.17;;;;;;;25.08;40.85;100662.53;5015256;28;20972;-55
2022/05/14 11:48:47;;;;;;;0.40;0.20;;;;;;;25.49;40.05;100656.34;5022526;28;20457;-53
2022/05/14 11:51:36;;;;;;;0.50;0.40;;;;;;;25.55;40.38;100658.56;5012354;28;20456;-53
2022/05/14 11:54:14;;;;;;;0.40;0.20;;;;;;;25.55;39.21;100661.28;5014915;28;20492;-53
2022/05/14 11:56:53;;;;;;;0.40;0.20;;;;;;;24.75;40.26;100649.84;5025930;28;20459;-53
2022/05/14 11:59:47;;;;;;;0.40;0.20;;;;;;;24.79;39.25;100651.31;5015016;28;20519;-53
2022/05/14 12:02:44;;;;;;;0.40;0.20;;;;;;;24.64;40.86;100647.16;5006511;28;20453;-52
2022/05/14 12:05:17;;;;;;;0.40;0.20;;;;;;;25.19;41.37;100643.47;5014574;28;20500;-53